Boardman, Oregon
Current Conditions -  °F | °C
As of 7:53 AM on Friday 19 Dec 2014 (Local Time) from KHRI Reporting Station
Light Rain Light Rain  
Wind Chill: 35°   Ceiling: 5000
Heat Index: 39°   Visibility: 2.5mi
Dew Point: 37°   Wind: 6mph
Humidity: 93%   Direction: 130°SE
Pressure: 29.94"   Gusts: NA
Location:  45.84°N, 119.7°W
Report Text: KHRI 191553Z AUTO 13005KT 2 1/2SM -RA BR FEW043 BKN050 OVC095 04/03 A2994 RMK AO2 RAE05B23 SLP140 P0000 T00390028
Loading
Personal Weather Stations






























Interactive Weather Map New forecast layout! Learn more

10-Day Weather Forecast

Advertisements
Track Severe Weather on mobile